Garden City Regional Airport Garden City US
ICAO: KGCK
IATA: GCK
Category: Medium
Scheduled Services: Yes

Elevation: 2891 ft
TransAlt. 18000 ft.

Airport Communications:
ASOS:121.325
KANSAS CITY CNTR:125.2
CTAF:118.15
GND:119
WICHITA RDO:122.45
TWR:118.15
UNICOM:122.95

KGCK Zoom In..

Runways:

(A) RW 12 length 5700 ft width 100 ft
---- / hdg 126

(B) RW 17 length 7299 ft width 100 ft
---- / hdg 171

(C) RW 30 length 5700 ft width 100 ft
---- / hdg 306

(D) RW 35 length 7299 ft width 100 ft
ILS 109.90 / hdg 351

Location; KGCK
Day. 16 / Time. 17.54 Zulu
* Altimeter: 30.13
* Temperature: 31° c. 87.8°f.
* Wind from: 090° Speed 12 kn.
Dewpoint: 19° c.
Visibility: 10 Statute Miles.
Clouds: Clear (automated report).

KGCK 161754Z 09012KT 10SM CLR 31/19 A3013 RMK AO2 SLP163 T03110194 10311 20200 50001


Wind From 090°
Speed 12 kn.

 
 
jpsmedia.com for Web Design worldairports.se 2018   terms of use